No particular awareness of the weather is required.    There are no Weather-warnings


Meteo18 Weather Cam more information Meteo18 Weather Cam


Thunder radar more information blitzortung!


Rain radar more information rain snow radar


Visit our other weather sites:

Template documentation
and downloads

And another site



Weather Underground History page Text

Daily Summary for February 28, 2017 Units:  English    Metric   Both
« Previous Day
Next Day »
Daily Weekly Monthly Yearly Custom
  High: Low: Average:
Temperature: TemperatureC °F 4.2 °F 5.4 °F
Dew Point: DewpointC °F 1.8 °F 3.1 °F
Humidity: Humidity % 79 % 85 %
Wind Speed: WindSpeedKMH mph 3.2 mph 16.6 mph
Wind Gust: WindSpeedGustKMH mph - -
Wind:- - SW
Pressure: PressurehPa in 995.1 in -
Precipitation: 2.3 in    
Historical Graphs
 
 
Tabular Data for February 28, 2017
Time Temperature Dew Point Pressure Wind Wind Speed Wind Gust Humidity Rainfall Rate (Hourly)
TemperatureC °F DewpointC °F PressurehPa in Calm     Humidity % HourlyPrecipMM in
00:02 5.8 °F 3.1 °F 1000.9 in SSW 19.3 mph 37.0 mph 83 % 0.0 in
00:12 5.9 °F 2.9 °F 1000.9 in SW 19.3 mph 37.0 mph 81 % 0.0 in
00:17 5.8 °F 2.8 °F 1001.2 in SW 30.6 mph 35.4 mph 81 % 0.0 in
00:22 5.8 °F 2.8 °F 1000.9 in South 16.1 mph 35.4 mph 81 % 0.0 in
00:27 5.7 °F 2.7 °F 1000.9 in South 20.9 mph 38.6 mph 81 % 0.0 in
00:32 5.6 °F 2.6 °F 1000.9 in West 37.0 mph 38.6 mph 81 % 0.0 in
00:37 5.6 °F 2.8 °F 1000.9 in SW 19.3 mph 41.8 mph 82 % 0.0 in
00:42 5.4 °F 2.6 °F 1000.9 in SW 20.9 mph 41.8 mph 82 % 0.0 in
00:47 5.4 °F 2.6 °F 1000.6 in SW 9.7 mph 38.6 mph 82 % 0.0 in
00:52 5.3 °F 2.6 °F 1000.6 in WSW 20.9 mph 38.6 mph 83 % 0.0 in
00:57 5.3 °F 2.6 °F 1000.9 in SW 27.4 mph 37.0 mph 83 % 0.0 in
01:02 5.3 °F 2.5 °F 1000.9 in SW 14.5 mph 35.4 mph 82 % 0.0 in
01:12 5.3 °F 2.6 °F 1000.9 in SW 16.1 mph 32.2 mph 83 % 0.0 in
01:17 5.3 °F 2.6 °F 1001.2 in SW 8.0 mph 30.6 mph 83 % 0.0 in
01:22 5.2 °F 2.5 °F 1001.2 in WSW 11.3 mph 38.6 mph 83 % 0.0 in
01:32 5.2 °F 2.7 °F 1001.2 in SW 12.9 mph 38.6 mph 84 % 0.0 in
01:37 5.1 °F 2.8 °F 1001.2 in SW 17.7 mph 27.4 mph 85 % 0.0 in
01:42 5.1 °F 3.0 °F 1000.9 in SW 11.3 mph 27.4 mph 86 % 0.0 in
01:47 5.1 °F 3.0 °F 1000.9 in SW 19.3 mph 29.0 mph 86 % 0.0 in
01:52 5.0 °F 3.0 °F 1001.2 in WSW 14.5 mph 29.0 mph 87 % 0.0 in
01:57 5.0 °F 3.0 °F 1001.2 in SW 24.1 mph 25.7 mph 87 % 0.0 in
02:02 5.1 °F 3.3 °F 1001.2 in SSW 12.9 mph 25.7 mph 88 % 0.0 in
02:07 5.1 °F 3.3 °F 1001.2 in SW 12.9 mph 27.4 mph 88 % 0.0 in
02:12 5.0 °F 3.2 °F 1001.2 in West 17.7 mph 27.4 mph 88 % 0.0 in
02:17 5.1 °F 3.3 °F 1001.2 in SSW 9.7 mph 25.7 mph 88 % 0.0 in
02:22 5.1 °F 3.3 °F 1001.2 in SW 22.5 mph 24.1 mph 88 % 0.0 in
02:27 5.1 °F 3.3 °F 1001.2 in SW 24.1 mph 24.1 mph 88 % 0.0 in
02:32 5.0 °F 3.2 °F 1001.2 in SW 8.0 mph 24.1 mph 88 % 0.0 in
02:37 4.9 °F 3.1 °F 1000.9 in WSW 14.5 mph 24.1 mph 88 % 0.0 in
02:42 4.9 °F 3.1 °F 1000.9 in WSW 12.9 mph 24.1 mph 88 % 0.0 in
02:47 4.9 °F 3.1 °F 1000.9 in SW 14.5 mph 24.1 mph 88 % 0.0 in
02:52 4.8 °F 3.0 °F 1000.9 in South 8.0 mph 24.1 mph 88 % 0.0 in
02:57 4.5 °F 2.8 °F 1000.9 in SW 6.4 mph 19.3 mph 89 % 0.0 in
03:02 4.4 °F 2.9 °F 1000.9 in SW 8.0 mph 19.3 mph 90 % 0.0 in
03:12 4.5 °F 3.2 °F 1000.9 in SSW 8.0 mph 17.7 mph 91 % 0.0 in
03:17 4.6 °F 3.3 °F 1000.9 in SSW 17.7 mph 17.7 mph 91 % 0.0 in
03:22 4.9 °F 3.2 °F 1000.6 in SW 16.1 mph 19.3 mph 89 % 0.0 in
03:27 5.1 °F 3.3 °F 1000.6 in WSW 20.9 mph 25.7 mph 88 % 0.0 in
03:37 5.3 °F 3.3 °F 1000.6 in SW 12.9 mph 30.6 mph 87 % 0.0 in
03:42 5.3 °F 3.1 °F 1000.6 in West 14.5 mph 30.6 mph 86 % 0.0 in
03:52 5.3 °F 3.1 °F 1000.6 in SW 14.5 mph 32.2 mph 86 % 0.0 in
03:57 5.2 °F 3.1 °F 1000.6 in SW 17.7 mph 32.2 mph 86 % 0.0 in
04:02 5.1 °F 3.0 °F 1000.6 in SW 16.1 mph 32.2 mph 86 % 0.0 in
04:12 4.8 °F 2.8 °F 1000.6 in SW 14.5 mph 27.4 mph 87 % 0.0 in
04:17 4.9 °F 2.9 °F 1000.6 in SW 12.9 mph 27.4 mph 87 % 0.0 in
04:22 4.9 °F 2.8 °F 1000.6 in WSW 14.5 mph 24.1 mph 86 % 0.0 in
04:32 5.0 °F 2.9 °F 1000.6 in SW 16.1 mph 24.1 mph 86 % 0.0 in
04:42 4.9 °F 2.9 °F 1000.6 in SW 12.9 mph 22.5 mph 87 % 0.0 in
04:47 4.9 °F 3.1 °F 1000.6 in SSW 12.9 mph 24.1 mph 88 % 0.0 in
04:52 4.9 °F 3.1 °F 1000.6 in SW 17.7 mph 24.1 mph 88 % 0.0 in
04:57 4.9 °F 3.1 °F 1000.2 in SW 9.7 mph 24.1 mph 88 % 0.0 in
05:02 5.1 °F 3.3 °F 1000.2 in SW 17.7 mph 24.1 mph 88 % 0.0 in
05:07 5.0 °F 3.2 °F 1000.2 in SSW 8.0 mph 24.1 mph 88 % 0.0 in
05:12 4.8 °F 3.1 °F 1000.2 in SSW 9.7 mph 24.1 mph 89 % 0.0 in
05:17 4.7 °F 3.0 °F 999.9 in SW 16.1 mph 24.1 mph 89 % 0.0 in
05:22 4.5 °F 3.0 °F 1000.2 in SW 14.5 mph 19.3 mph 90 % 0.0 in
05:27 4.4 °F 2.9 °F 999.9 in SW 17.7 mph 19.3 mph 90 % 0.0 in
05:32 4.4 °F 2.9 °F 999.9 in SW 11.3 mph 20.9 mph 90 % 0.0 in
05:42 4.5 °F 3.0 °F 999.9 in SSW 14.5 mph 24.1 mph 90 % 0.0 in
05:47 4.6 °F 3.1 °F 999.9 in SSW 16.1 mph 24.1 mph 90 % 0.0 in
05:52 4.7 °F 3.2 °F 999.9 in SW 16.1 mph 25.7 mph 90 % 0.0 in
06:02 4.5 °F 3.0 °F 999.5 in SW 17.7 mph 25.7 mph 90 % 0.0 in
06:07 4.4 °F 2.9 °F 999.5 in SW 12.9 mph 25.7 mph 90 % 0.0 in
06:12 4.4 °F 3.1 °F 999.2 in SW 22.5 mph 25.7 mph 91 % 0.0 in
06:17 4.4 °F 3.1 °F 998.9 in SW 16.1 mph 25.7 mph 91 % 0.0 in
06:22 4.4 °F 3.1 °F 999.2 in SSW 8.0 mph 24.1 mph 91 % 0.0 in
06:32 4.3 °F 3.0 °F 999.2 in SSW 6.4 mph 24.1 mph 91 % 0.0 in
06:37 4.3 °F 3.0 °F 999.2 in SSW 9.7 mph 20.9 mph 91 % 0.0 in
06:42 4.3 °F 3.0 °F 999.2 in SW 16.1 mph 20.9 mph 91 % 0.0 in
06:47 4.4 °F 3.1 °F 998.9 in SW 11.3 mph 20.9 mph 91 % 0.0 in
06:52 4.3 °F 3.0 °F 998.9 in SSW 12.9 mph 19.3 mph 91 % 0.0 in
07:02 4.4 °F 2.9 °F 998.5 in SSW 14.5 mph 19.3 mph 90 % 0.0 in
07:07 4.3 °F 2.8 °F 998.5 in SSW 9.7 mph 19.3 mph 90 % 0.0 in
07:12 4.3 °F 2.8 °F 998.5 in SSE 8.0 mph 20.9 mph 90 % 0.0 in
07:17 4.2 °F 2.7 °F 998.2 in South 9.7 mph 20.9 mph 90 % 0.0 in
07:22 4.2 °F 2.7 °F 998.2 in SSW 11.3 mph 17.7 mph 90 % 0.0 in
07:32 4.2 °F 2.7 °F 998.2 in SSW 11.3 mph 22.5 mph 90 % 0.0 in
07:42 4.3 °F 2.6 °F 997.9 in SSW 14.5 mph 22.5 mph 89 % 0.0 in
07:47 4.4 °F 2.7 °F 997.9 in SSW 19.3 mph 22.5 mph 89 % 0.0 in
07:52 4.6 °F 2.9 °F 997.9 in SSW 12.9 mph 24.1 mph 89 % 0.0 in
07:57 4.7 °F 2.9 °F 997.5 in SW 9.7 mph 24.1 mph 88 % 0.0 in
08:02 4.8 °F 3.0 °F 997.5 in SSW 12.9 mph 24.1 mph 88 % 0.0 in
08:07 4.9 °F 2.9 °F 997.5 in South 12.9 mph 24.1 mph 87 % 0.0 in
08:12 4.9 °F 2.9 °F 997.2 in South 11.3 mph 24.1 mph 87 % 0.0 in
08:22 5.1 °F 3.0 °F 997.2 in SSW 14.5 mph 22.5 mph 86 % 0.0 in
08:32 5.2 °F 3.1 °F 996.8 in SSW 12.9 mph 32.2 mph 86 % 0.0 in
08:37 5.2 °F 3.1 °F 996.8 in SSE 12.9 mph 32.2 mph 86 % 0.0 in
08:42 5.2 °F 3.2 °F 996.8 in SSE 16.1 mph 27.4 mph 87 % 0.0 in
08:47 5.2 °F 3.2 °F 996.5 in SSW 3.2 mph 27.4 mph 87 % 0.0 in
08:52 5.1 °F 3.4 °F 996.2 in SSE 3.2 mph 24.1 mph 89 % 0.3 in
09:02 4.8 °F 3.3 °F 996.2 in SSE 4.8 mph 17.7 mph 90 % 0.5 in
09:12 4.8 °F 3.5 °F 995.5 in SE 8.0 mph 17.7 mph 91 % 0.5 in
09:22 5.1 °F 3.6 °F 995.5 in SSE 8.0 mph 22.5 mph 90 % 0.5 in
09:27 5.2 °F 3.7 °F 995.5 in SSE 9.7 mph 22.5 mph 90 % 0.5 in
09:32 5.2 °F 3.7 °F 995.5 in SSE 8.0 mph 29.0 mph 90 % 0.5 in
09:37 5.3 °F 3.8 °F 995.5 in SSW 16.1 mph 29.0 mph 90 % 0.5 in
09:42 5.3 °F 3.6 °F 995.5 in SSW 24.1 mph 27.4 mph 89 % 0.5 in
09:47 5.4 °F 3.7 °F 995.5 in South 20.9 mph 27.4 mph 89 % 0.5 in
09:52 5.4 °F 3.7 °F 995.1 in SW 27.4 mph 27.4 mph 89 % 0.5 in
09:57 5.4 °F 3.7 °F 995.1 in South 14.5 mph 27.4 mph 89 % 0.5 in
10:02 5.5 °F 3.8 °F 995.5 in SSW 24.1 mph 37.0 mph 89 % 0.5 in
10:12 5.6 °F 4.1 °F 995.5 in SW 24.1 mph 37.0 mph 90 % 0.5 in
10:17 5.6 °F 4.2 °F 995.5 in SSW 35.4 mph 37.0 mph 91 % 0.5 in
10:22 5.6 °F 4.2 °F 995.8 in SW 24.1 mph 46.7 mph 91 % 0.5 in
10:32 5.6 °F 3.9 °F 995.5 in SW 16.1 mph 48.3 mph 89 % 0.8 in
10:42 5.5 °F 3.8 °F 995.8 in WSW 8.0 mph 48.3 mph 89 % 0.8 in
10:52 5.3 °F 3.6 °F 995.5 in SSW 22.5 mph 45.1 mph 89 % 0.8 in
10:57 5.4 °F 3.7 °F 995.5 in SW 22.5 mph 45.1 mph 89 % 0.8 in
11:02 5.5 °F 3.8 °F 995.1 in WSW 17.7 mph 37.0 mph 89 % 0.8 in
11:12 5.6 °F 3.9 °F 995.1 in SW 24.1 mph 41.8 mph 89 % 0.5 in
11:17 5.7 °F 4.0 °F 995.1 in SW 30.6 mph 41.8 mph 89 % 0.5 in
11:22 5.9 °F 4.1 °F 995.1 in SW 22.5 mph 37.0 mph 88 % 0.5 in
11:32 6.0 °F 3.8 °F 995.5 in SW 20.9 mph 46.7 mph 86 % 0.3 in
11:37 6.0 °F 3.8 °F 995.5 in SW 8.0 mph 46.7 mph 86 % 0.3 in
11:42 6.0 °F 3.7 °F 995.5 in WSW 22.5 mph 43.4 mph 85 % 0.3 in
11:47 5.9 °F 3.6 °F 995.5 in SW 27.4 mph 43.4 mph 85 % 0.3 in
11:52 5.9 °F 3.7 °F 995.5 in SW 22.5 mph 45.1 mph 86 % 0.0 in
11:57 6.0 °F 3.8 °F 995.5 in WSW 8.0 mph 45.1 mph 86 % 0.0 in
12:02 5.9 °F 3.6 °F 995.8 in West 11.3 mph 45.1 mph 85 % 0.0 in
12:12 5.6 °F 3.4 °F 996.2 in WSW 30.6 mph 49.9 mph 86 % 0.0 in
12:17 5.4 °F 3.2 °F 995.8 in WSW 30.6 mph 49.9 mph 86 % 0.0 in
12:22 5.4 °F 3.4 °F 996.2 in WSW 20.9 mph 43.4 mph 87 % 0.0 in
12:32 5.4 °F 3.4 °F 996.2 in SW 19.3 mph 43.4 mph 87 % 0.0 in
12:42 5.4 °F 3.2 °F 996.2 in SW 30.6 mph 40.2 mph 86 % 0.3 in
12:47 5.2 °F 3.2 °F 996.2 in WSW 35.4 mph 40.2 mph 87 % 0.3 in
12:52 5.2 °F 3.4 °F 996.2 in WSW 25.7 mph 45.1 mph 88 % 0.3 in
13:02 5.3 °F 3.6 °F 996.2 in SW 24.1 mph 45.1 mph 89 % 0.3 in
13:12 5.8 °F 3.8 °F 996.2 in SW 17.7 mph 35.4 mph 87 % 0.3 in
13:22 6.3 °F 4.3 °F 996.2 in SSW 12.9 mph 38.6 mph 87 % 0.3 in
13:32 6.4 °F 4.1 °F 995.8 in SW 27.4 mph 38.6 mph 85 % 0.0 in
13:42 6.5 °F 3.8 °F 996.2 in WSW 22.5 mph 45.1 mph 83 % 0.0 in
13:52 6.6 °F 3.9 °F 996.2 in SW 30.6 mph 43.4 mph 83 % 0.0 in
14:02 6.7 °F 4.0 °F 996.2 in SW 25.7 mph 48.3 mph 83 % 0.0 in
14:12 7.0 °F 4.0 °F 995.8 in SW 27.4 mph 48.3 mph 81 % 0.0 in
14:17 7.2 °F 4.0 °F 995.8 in SW 19.3 mph 38.6 mph 80 % 0.0 in
14:22 7.2 °F 4.0 °F 995.8 in SW 22.5 mph 54.7 mph 80 % 0.0 in
14:32 7.1 °F 4.1 °F 995.8 in WSW 16.1 mph 54.7 mph 81 % 0.0 in
14:37 7.0 °F 4.1 °F 995.8 in WSW 43.4 mph 51.5 mph 82 % 0.0 in
14:42 7.0 °F 4.0 °F 995.8 in WSW 32.2 mph 51.5 mph 81 % 0.0 in
14:47 7.3 °F 4.3 °F 995.8 in SW 16.1 mph 53.1 mph 81 % 0.0 in
14:52 7.3 °F 3.9 °F 995.8 in WSW 17.7 mph 53.1 mph 79 % 0.0 in
15:02 6.6 °F 4.1 °F 996.5 in WSW 37.0 mph 66.0 mph 84 % 0.3 in
15:12 6.0 °F 3.5 °F 997.2 in West 27.4 mph 66.0 mph 84 % 0.3 in
15:17 5.8 °F 3.3 °F 997.5 in WNW 40.2 mph 66.0 mph 84 % 0.3 in
15:22 5.7 °F 3.2 °F 997.9 in WNW 35.4 mph 51.5 mph 84 % 0.3 in
15:32 5.6 °F 3.3 °F 998.2 in West 25.7 mph 51.5 mph 85 % 0.3 in
15:42 5.9 °F 3.2 °F 998.2 in WNW 30.6 mph 48.3 mph 83 % 0.3 in
15:52 6.1 °F 3.3 °F 998.5 in WNW 37.0 mph 48.3 mph 82 % 0.3 in
15:57 6.3 °F 3.8 °F 998.9 in WNW 30.6 mph 51.5 mph 84 % 0.0 in
16:02 6.4 °F 3.7 °F 999.2 in WNW 16.1 mph 51.5 mph 83 % 0.0 in
16:12 6.5 °F 3.5 °F 999.5 in West 11.3 mph 51.5 mph 81 % 0.0 in
16:17 6.6 °F 3.4 °F 999.5 in West 11.3 mph 49.9 mph 80 % 0.0 in
16:22 6.4 °F 3.2 °F 999.5 in WNW 24.1 mph 49.9 mph 80 % 0.0 in
16:32 6.5 °F 3.1 °F 999.9 in WNW 14.5 mph 38.6 mph 79 % 0.0 in
16:42 6.3 °F 3.1 °F 1000.2 in WSW 16.1 mph 48.3 mph 80 % 0.0 in
16:47 6.3 °F 3.1 °F 1000.2 in West 29.0 mph 48.3 mph 80 % 0.0 in
16:52 6.3 °F 3.1 °F 1000.6 in West 30.6 mph 48.3 mph 80 % 0.0 in
16:57 6.2 °F 3.2 °F 1000.6 in West 24.1 mph 43.4 mph 81 % 0.0 in
17:02 6.1 °F 3.4 °F 1000.9 in West 29.0 mph 43.4 mph 83 % 0.0 in
17:12 6.0 °F 3.2 °F 1001.2 in NW 32.2 mph 37.0 mph 82 % 0.0 in
17:17 6.2 °F 3.4 °F 1001.2 in West 27.4 mph 49.9 mph 82 % 0.0 in
17:22 6.3 °F 3.3 °F 1001.6 in WNW 20.9 mph 49.9 mph 81 % 0.0 in
17:32 6.3 °F 3.6 °F 1001.9 in West 14.5 mph 35.4 mph 83 % 0.0 in
17:42 6.1 °F 3.6 °F 1002.3 in West 14.5 mph 27.4 mph 84 % 0.0 in
17:47 6.0 °F 3.5 °F 1002.6 in West 11.3 mph 24.1 mph 84 % 0.0 in
17:52 6.1 °F 3.6 °F 1002.6 in WNW 14.5 mph 24.1 mph 84 % 0.0 in
18:02 6.3 °F 4.0 °F 1002.9 in WNW 4.8 mph 27.4 mph 85 % 0.0 in
18:12 6.3 °F 3.6 °F 1003.3 in WSW 6.4 mph 27.4 mph 83 % 0.0 in
18:17 6.3 °F 3.6 °F 1003.6 in West 12.9 mph 17.7 mph 83 % 0.0 in
18:22 6.1 °F 3.6 °F 1003.6 in WSW 6.4 mph 17.7 mph 84 % 0.0 in
18:32 5.9 °F 3.4 °F 1003.6 in WSW 11.3 mph 17.7 mph 84 % 0.0 in
18:42 5.7 °F 3.4 °F 1003.9 in WSW 4.8 mph 20.9 mph 85 % 0.0 in
18:47 5.7 °F 3.4 °F 1004.3 in WSW 8.0 mph 16.1 mph 85 % 0.0 in
18:57 5.6 °F 3.3 °F 1004.6 in SW 3.2 mph 14.5 mph 85 % 0.0 in
19:02 5.6 °F 2.9 °F 1004.6 in SW 4.8 mph 14.5 mph 83 % 0.0 in
19:12 5.7 °F 2.7 °F 1005.0 in SSW 6.4 mph 19.3 mph 81 % 0.0 in
19:17 5.7 °F 2.7 °F 1005.0 in WSW 3.2 mph 19.3 mph 81 % 0.0 in
19:22 5.6 °F 2.6 °F 1005.0 in West 19.3 mph 19.3 mph 81 % 0.0 in
19:27 5.7 °F 2.5 °F 1005.3 in SW 8.0 mph 17.7 mph 80 % 0.0 in
19:32 5.6 °F 2.4 °F 1005.3 in SW 9.7 mph 19.3 mph 80 % 0.0 in
19:37 5.4 °F 2.4 °F 1005.3 in SW 9.7 mph 19.3 mph 81 % 0.0 in
19:42 5.4 °F 2.2 °F 1005.6 in SW 11.3 mph 19.3 mph 80 % 0.0 in
19:52 5.2 °F 2.2 °F 1005.6 in SW 8.0 mph 17.7 mph 81 % 0.0 in
19:57 5.1 °F 2.1 °F 1005.6 in SW 9.7 mph 17.7 mph 81 % 0.0 in
20:02 5.1 °F 2.1 °F 1005.6 in SW 11.3 mph 17.7 mph 81 % 0.0 in
20:12 4.8 °F 2.2 °F 1005.6 in SW 9.7 mph 17.7 mph 83 % 0.0 in
20:17 4.9 °F 2.1 °F 1005.6 in SSW 8.0 mph 17.7 mph 82 % 0.0 in
20:22 5.1 °F 2.1 °F 1006.0 in SSW 4.8 mph 17.7 mph 81 % 0.0 in
20:32 5.0 °F 2.0 °F 1006.0 in WSW 4.8 mph 17.7 mph 81 % 0.0 in
20:42 4.3 °F 1.8 °F 1006.3 in SW 8.0 mph 17.7 mph 84 % 0.0 in
20:47 4.2 °F 1.9 °F 1006.3 in SW 3.2 mph 12.9 mph 85 % 0.0 in
20:52 4.5 °F 2.0 °F 1006.7 in SSW 6.4 mph 12.9 mph 84 % 0.0 in
20:57 4.7 °F 2.1 °F 1006.7 in WSW 11.3 mph 12.9 mph 83 % 0.0 in
21:02 4.8 °F 2.2 °F 1006.7 in SW 8.0 mph 19.3 mph 83 % 0.0 in
21:12 5.0 °F 2.0 °F 1006.7 in South 11.3 mph 19.3 mph 81 % 0.0 in
21:17 5.1 °F 1.9 °F 1006.7 in SW 19.3 mph 24.1 mph 80 % 0.0 in
21:22 5.1 °F 1.9 °F 1006.7 in SW 11.3 mph 24.1 mph 80 % 0.0 in
21:32 5.2 °F 2.2 °F 1007.0 in SW 12.9 mph 24.1 mph 81 % 0.0 in
21:42 5.3 °F 2.3 °F 1007.0 in WSW 8.0 mph 22.5 mph 81 % 0.0 in
21:52 5.4 °F 2.4 °F 1007.0 in SW 12.9 mph 30.6 mph 81 % 0.0 in
21:57 5.4 °F 2.4 °F 1007.0 in WSW 19.3 mph 30.6 mph 81 % 0.0 in
22:02 5.6 °F 2.4 °F 1007.0 in SW 24.1 mph 27.4 mph 80 % 0.0 in
22:12 5.7 °F 2.3 °F 1007.0 in WSW 20.9 mph 32.2 mph 79 % 0.0 in
22:17 5.7 °F 2.3 °F 1007.0 in SW 22.5 mph 32.2 mph 79 % 0.0 in
22:22 5.7 °F 2.3 °F 1007.0 in SW 25.7 mph 30.6 mph 79 % 0.0 in
22:32 5.8 °F 2.4 °F 1007.3 in West 29.0 mph 30.6 mph 79 % 0.0 in
22:42 5.8 °F 2.4 °F 1007.3 in SW 17.7 mph 32.2 mph 79 % 0.0 in
22:47 5.8 °F 2.4 °F 1007.3 in WSW 12.9 mph 37.0 mph 79 % 0.0 in
22:52 5.8 °F 2.6 °F 1007.3 in SW 8.0 mph 37.0 mph 80 % 0.0 in
23:02 5.7 °F 2.7 °F 1007.0 in West 12.9 mph 33.8 mph 81 % 0.0 in
23:12 5.7 °F 2.9 °F 1007.0 in SW 16.1 mph 33.8 mph 82 % 0.0 in
23:17 5.7 °F 2.9 °F 1007.0 in WSW 16.1 mph 30.6 mph 82 % 0.0 in
23:22 5.7 °F 3.0 °F 1007.0 in WSW 11.3 mph 27.4 mph 83 % 0.0 in
23:32 5.6 °F 3.3 °F 1007.3 in SW 9.7 mph 27.4 mph 85 % 0.0 in
23:42 5.6 °F 3.6 °F 1007.3 in SSW 25.7 mph 33.8 mph 87 % 0.0 in
23:47 5.6 °F 3.6 °F 1007.3 in SW 19.3 mph 33.8 mph 87 % 0.3 in
23:52 5.7 °F 3.5 °F 1007.3 in SW 20.9 mph 33.8 mph 86 % 0.3 in
23:57 5.8 °F 3.6 °F 1007.3 in SW 29.0 mph 37.0 mph 86 % 0.3 in
Meteo18
Compliments of Weather Underground - 4 mb

Script developed by  Jim McMurry - jmcmurry@mwt.net Adapted for the template by  Wim van der Kuil - Leuven-Template.eu

You find our weather info also at:

European Weather Network

Weather Underground

Equipment we use:

Weather-station
Davis Vue

Weather-program
Meteobridge

Weather-server
Raspberry PI 2 B+

Provider
1 and 1

Davis Vue

Meteobridge

Raspberry PI 2 B+

1 and 1